Flight Track Log - Related Links

Times and Time Zones

All times are in EDT time to prevent confusion due to time zone crossing. See the ASA46 flight status page for this flight to view local times or setup timezone preferences in your user account.

Time Position Orientation Groundspeed Altitude Reporting Facility
EDT Latitude Longitude Course Direction KTS MPH feet Rate Location/Type
Thu 12:44:42 AM 60.7833 -161.6833 85° East 200 230 3,600  Level Anchorage Center
Thu 12:45:42 AM 60.8000 -161.5500 76° East 220 253 6,900 3,100 Climbing Anchorage Center
Thu 12:46:42 AM 60.8000 -161.3833 90° East 260 299 9,800 2,750 Climbing Anchorage Center
Thu 12:47:42 AM 60.8167 -161.2000 79° East 310 357 12,400 3,050 Climbing Anchorage Center
Thu 12:48:00 AM 60.8455 -160.3825 85° East  Level FlightAware Approximate
Thu 12:48:42 AM 60.8167 -161.0167 90° East 320 368 15,900  Level Anchorage Center
Thu 12:49:00 AM 60.8560 -160.1395 85° East  Level FlightAware Approximate
Thu 12:49:43 AM 60.8333 -160.8000 81° East 360 414 18,800  Level Anchorage Center
Thu 12:50:00 AM 60.8661 -159.8963 85° East  Level FlightAware Approximate
Thu 12:50:43 AM 60.8333 -160.6000 90° East 370 426 21,600  Level Anchorage Center
Thu 12:51:42 AM 60.8500 -160.3833 81° East 380 437 23,900 2,150 Climbing Anchorage Center
Thu 12:52:43 AM 60.8667 -160.1333 82° East 420 483 25,900 2,182 Climbing Anchorage Center
Thu 12:53:43 AM 60.8667 -159.8667 90° East 450 518 28,300 2,000 Climbing Anchorage Center
Thu 12:54:43 AM 60.8833 -159.6000 83° East 460 529 29,900 1,800 Climbing Anchorage Center
Thu 12:55:43 AM 60.9000 -159.3333 83° East 470 541 31,900 1,550 Climbing Anchorage Center
Thu 12:56:43 AM 60.9000 -159.0667 90° East 460 529 33,000 550 Climbing Anchorage Center
Thu 12:57:43 AM 60.9167 -158.8000 83° East 450 518 33,000  Level Anchorage Center
Thu 12:58:43 AM 60.9167 -158.5333 90° East 460 529 33,000  Level Anchorage Center
Thu 12:59:43 AM 60.9167 -158.2833 90° East 460 529 33,000  Level Anchorage Center
Thu 01:00:43 AM 60.9333 -158.0667 81° East 460 529 33,000  Level Anchorage Center
Thu 01:01:43 AM 60.9333 -157.7500 90° East 460 529 33,000  Level Anchorage Center
Thu 01:02:44 AM 60.9500 -157.4833 83° East 460 529 33,000  Level Anchorage Center
Thu 01:03:44 AM 60.9500 -157.2167 90° East 460 529 33,000  Level Anchorage Center
Thu 01:04:44 AM 60.9500 -156.9500 90° East 460 529 33,000  Level Anchorage Center
Thu 01:05:44 AM 60.9667 -156.6833 83° East 460 529 33,000  Level Anchorage Center
Thu 01:06:44 AM 60.9667 -156.4167 90° East 470 541 33,000  Level Anchorage Center
Thu 01:07:44 AM 60.9667 -156.1500 90° East 460 529 33,000  Level Anchorage Center
Thu 01:08:44 AM 60.9667 -155.8833 90° East 470 541 33,000  Level Anchorage Center
Thu 01:09:44 AM 60.9667 -155.6667 90° East 460 529 33,000  Level Anchorage Center
Thu 01:10:45 AM 60.9833 -155.3500 84° East 460 529 33,000  Level Anchorage Center
Thu 01:11:45 AM 60.9833 -155.1000 90° East 460 529 33,000  Level Anchorage Center
Thu 01:12:45 AM 60.9833 -154.8333 90° East 440 506 33,000  Level Anchorage Center
Thu 01:13:45 AM 60.9833 -154.5667 90° East 470 541 33,000  Level Anchorage Center
Thu 01:14:45 AM 60.9833 -154.3000 90° East 460 529 33,000  Level Anchorage Center
Thu 01:15:45 AM 60.9833 -154.0333 90° East 460 529 33,000  Level Anchorage Center
Thu 01:16:45 AM 60.9833 -153.7667 90° East 460 529 33,000  Level Anchorage Center
Thu 01:17:45 AM 60.9833 -153.5000 90° East 460 529 33,000 -550 Level Anchorage Center
Thu 01:18:45 AM 60.9833 -153.2500 90° East 450 518 31,900 -1,983 Descending Anchorage Center
Thu 01:19:46 AM 60.9667 -152.9833 97° East 460 529 29,000 -2,777 Descending Anchorage Center
Thu 01:20:46 AM 60.9667 -152.7333 90° East 440 506 26,300 -2,571 Descending Anchorage Center
Thu 01:21:45 AM 60.9667 -152.4833 90° East 430 495 23,900 -2,300 Descending Anchorage Center
Thu 01:22:46 AM 60.9667 -152.2500 90° East 410 472 21,700 -2,231 Descending Anchorage Center
Thu 01:23:46 AM 60.9500 -152.0167 98° East 390 449 19,400 -2,100 Descending Anchorage Center
Thu 01:24:46 AM 60.9500 -151.8000 90° East 370 426 17,500 -2,150 Descending Anchorage Center
Thu 01:25:46 AM 60.9500 -151.5833 90° East 360 414 15,100 -2,400 Descending Anchorage Center
Thu 01:27:00 AM 60.9403 -151.3268 95° East  Level FlightAware Approximate
Thu 01:34:00 AM 61.1667 -149.9833 65° Northeast  Level FlightAware Approximate
Thu 01:35:00 AM 61.1741 -149.9982 65° Northeast  Level Estimated
Thu 01:36:00 AM 61.1741 -149.9982 65° Northeast  Level Estimated
Thu 01:37:00 AM 61.1741 -149.9982 65° Northeast  Level Estimated
Thu 01:38:00 AM 61.1741 -149.9982 65° Northeast  Level Estimated
Thu 01:39:00 AM 61.1741 -149.9982 65° Northeast  Level Estimated
Thu 01:40:00 AM 61.1741 -149.9982 65° Northeast  Level Estimated
Thu 01:41:00 AM 61.1741 -149.9982 65° Northeast  Level Estimated
Thu 01:42:00 AM 61.1741 -149.9982 65° Northeast  Level Estimated
Thu 01:43:00 AM 61.1741 -149.9982 65° Northeast  Level Estimated
Thu 01:44:00 AM 61.1741 -149.9982 65° Northeast  Level Estimated
Thu 01:45:00 AM 61.1741 -149.9982 65° Northeast  Level Estimated
Thu 01:46:00 AM 61.1741 -149.9982 65° Northeast  Level Estimated

Login

Don't have an account? Register now (free) for customized features, flight alerts, and more!